createdAt,value
2018-05-18T00:00:35.499Z,49.95
2018-05-18T00:01:35.383Z,49.92
2018-05-18T00:02:35.200Z,49.94
2018-05-18T00:03:35.315Z,49.99
2018-05-18T00:04:35.189Z,49.89
2018-05-18T00:05:35.344Z,50
2018-05-18T00:06:35.223Z,49.99
2018-05-18T00:07:35.239Z,49.94
2018-05-18T00:08:35.375Z,49.96
2018-05-18T00:09:35.473Z,50
2018-05-18T00:10:35.291Z,49.97
2018-05-18T00:11:35.156Z,49.98
2018-05-18T00:12:35.254Z,49.94
2018-05-18T00:13:35.382Z,50
2018-05-18T00:14:35.201Z,50
2018-05-18T00:15:35.601Z,49.93
2018-05-18T00:16:35.236Z,49.95
2018-05-18T00:17:35.160Z,49.98
2018-05-18T00:18:35.269Z,49.97
2018-05-18T00:19:35.336Z,49.93
2018-05-18T00:20:35.369Z,49.94
2018-05-18T00:21:35.391Z,49.97
2018-05-18T00:22:35.327Z,49.95
2018-05-18T00:23:35.256Z,49.97
2018-05-18T00:24:35.383Z,49.91
2018-05-18T00:25:35.214Z,49.98
2018-05-18T00:26:35.380Z,49.97
2018-05-18T00:27:35.323Z,49.93
2018-05-18T00:28:35.263Z,49.88
2018-05-18T00:29:35.276Z,49.89
2018-05-18T00:30:35.233Z,49.93
2018-05-18T00:31:35.224Z,49.93
2018-05-18T00:32:35.108Z,49.92
2018-05-18T00:33:35.184Z,49.9
2018-05-18T00:34:35.380Z,49.94
2018-05-18T00:35:35.162Z,49.91
2018-05-18T00:36:35.343Z,49.89
2018-05-18T00:37:35.390Z,49.89
2018-05-18T00:38:35.303Z,49.94
2018-05-18T00:39:35.189Z,49.96
2018-05-18T00:40:35.337Z,49.85
2018-05-18T00:41:35.352Z,49.98
2018-05-18T00:42:35.179Z,49.93
2018-05-18T00:43:35.271Z,49.92
2018-05-18T00:44:35.332Z,49.89
2018-05-18T00:45:35.319Z,49.9
2018-05-18T00:46:35.311Z,49.94
2018-05-18T00:47:35.245Z,49.9
2018-05-18T00:48:35.462Z,49.97
2018-05-18T00:49:35.401Z,49.91
2018-05-18T00:50:35.263Z,49.91
2018-05-18T00:51:35.273Z,49.91
2018-05-18T00:52:35.114Z,49.91
2018-05-18T00:53:35.251Z,49.86
2018-05-18T00:54:35.529Z,49.91
2018-05-18T00:55:35.146Z,49.94
2018-05-18T00:56:35.265Z,49.89
2018-05-18T00:57:35.285Z,49.9
2018-05-18T00:58:35.395Z,49.93
2018-05-18T00:59:35.227Z,49.91
2018-05-18T01:00:35.191Z,49.9
2018-05-18T01:01:35.137Z,49.85
2018-05-18T01:02:35.400Z,49.98
2018-05-18T01:03:35.353Z,49.91
2018-05-18T01:04:35.307Z,49.87
2018-05-18T01:05:35.236Z,49.86
2018-05-18T01:06:35.970Z,49.88
2018-05-18T01:07:35.807Z,49.9
2018-05-18T01:08:35.973Z,49.97
2018-05-18T01:09:36.263Z,49.87
2018-05-18T01:10:35.993Z,49.9
2018-05-18T01:11:36.076Z,49.87
2018-05-18T01:12:36.106Z,49.87
2018-05-18T01:13:36.069Z,49.94
2018-05-18T01:14:35.935Z,49.93
2018-05-18T01:15:36.084Z,49.87
2018-05-18T01:16:35.817Z,49.88
2018-05-18T01:17:37.346Z,49.88
2018-05-18T01:18:36.159Z,49.86
2018-05-18T01:19:35.199Z,49.87
2018-05-18T01:20:35.703Z,49.9
2018-05-18T01:21:35.174Z,49.9
2018-05-18T01:22:35.863Z,49.83
2018-05-18T01:23:35.881Z,49.92
2018-05-18T01:24:35.986Z,49.82
2018-05-18T01:25:36.054Z,49.8
2018-05-18T01:26:37.298Z,49.84
2018-05-18T01:27:35.953Z,49.85
2018-05-18T01:28:35.125Z,49.86
2018-05-18T01:29:35.830Z,49.81
2018-05-18T01:30:35.230Z,49.85
2018-05-18T01:31:35.619Z,49.85
2018-05-18T01:32:36.044Z,49.85
2018-05-18T01:33:36.029Z,49.84
2018-05-18T01:34:35.785Z,49.85
2018-05-18T01:35:36.796Z,49.85
2018-05-18T01:36:35.992Z,49.83
2018-05-18T01:37:35.253Z,49.85
2018-05-18T01:38:35.773Z,49.77
2018-05-18T01:39:35.787Z,49.82
2018-05-18T01:40:35.938Z,49.78
2018-05-18T01:41:35.762Z,49.83
2018-05-18T01:42:35.740Z,49.87
2018-05-18T01:43:36.015Z,49.86
2018-05-18T01:44:35.956Z,49.83
2018-05-18T01:45:36.508Z,49.83
2018-05-18T01:46:36.189Z,49.87
2018-05-18T01:47:35.220Z,49.8
2018-05-18T01:48:36.097Z,49.78
2018-05-18T01:49:36.132Z,49.84
2018-05-18T01:50:35.130Z,49.8
2018-05-18T01:51:36.041Z,49.8
2018-05-18T01:52:36.228Z,49.8
2018-05-18T01:53:35.961Z,49.84
2018-05-18T01:54:35.307Z,49.82
2018-05-18T01:55:35.094Z,49.81
2018-05-18T01:56:35.748Z,49.85
2018-05-18T01:57:35.890Z,49.76
2018-05-18T01:58:35.202Z,49.82
2018-05-18T01:59:35.922Z,49.87
2018-05-18T02:00:36.149Z,49.83
2018-05-18T02:01:35.916Z,49.91
2018-05-18T02:02:36.032Z,49.82
2018-05-18T02:03:35.992Z,49.77
2018-05-18T02:04:35.160Z,49.78
2018-05-18T02:05:35.565Z,49.83
2018-05-18T02:06:35.258Z,49.78
2018-05-18T02:07:35.338Z,49.83
2018-05-18T02:08:35.228Z,49.85
2018-05-18T02:09:35.193Z,49.8
2018-05-18T02:10:37.860Z,49.74
2018-05-18T02:11:35.333Z,49.79
2018-05-18T02:12:35.498Z,49.79
2018-05-18T02:13:35.342Z,49.77
2018-05-18T02:14:35.190Z,49.87
2018-05-18T02:15:35.309Z,49.88
2018-05-18T02:16:35.194Z,49.81
2018-05-18T02:17:35.319Z,49.81
2018-05-18T02:18:35.206Z,49.73
2018-05-18T02:19:35.288Z,49.73
2018-05-18T02:20:35.364Z,49.79
2018-05-18T02:21:35.240Z,49.75
2018-05-18T02:22:35.294Z,49.74
2018-05-18T02:23:35.302Z,49.77
2018-05-18T02:24:35.195Z,49.77
2018-05-18T02:25:37.634Z,49.75
2018-05-18T02:26:35.213Z,49.73
2018-05-18T02:27:35.331Z,49.74
2018-05-18T02:28:37.493Z,49.7
2018-05-18T02:29:35.242Z,49.76
2018-05-18T02:30:35.355Z,49.76
2018-05-18T02:31:35.333Z,49.74
2018-05-18T02:32:35.356Z,49.76
2018-05-18T02:33:35.379Z,49.76
2018-05-18T02:34:37.467Z,49.78
2018-05-18T02:35:35.223Z,49.74
2018-05-18T02:36:35.407Z,49.72
2018-05-18T02:37:35.288Z,49.75
2018-05-18T02:38:35.233Z,49.69
2018-05-18T02:39:35.206Z,49.67
2018-05-18T02:40:37.632Z,49.67
2018-05-18T02:41:35.232Z,49.81
2018-05-18T02:42:42.450Z,49.7
2018-05-18T02:43:35.333Z,49.76
2018-05-18T02:44:35.381Z,49.74
2018-05-18T02:45:35.360Z,49.73
2018-05-18T02:46:35.271Z,49.74
2018-05-18T02:47:35.318Z,49.77
2018-05-18T02:48:37.630Z,49.7
2018-05-18T02:49:35.293Z,49.71
2018-05-18T02:50:35.265Z,49.74
2018-05-18T02:51:37.254Z,49.72
2018-05-18T02:52:35.385Z,49.73
2018-05-18T02:53:35.301Z,49.73
2018-05-18T02:54:35.340Z,49.73
2018-05-18T02:55:35.261Z,49.72
2018-05-18T02:56:35.217Z,49.75
2018-05-18T02:57:35.352Z,49.69
2018-05-18T02:58:35.338Z,49.76
2018-05-18T02:59:35.219Z,49.72
2018-05-18T03:00:35.378Z,49.74
2018-05-18T03:01:35.348Z,49.73
2018-05-18T03:02:35.238Z,49.76
2018-05-18T03:03:35.371Z,49.74
2018-05-18T03:04:35.339Z,49.72
2018-05-18T03:05:35.637Z,49.71
2018-05-18T03:06:35.637Z,49.75
2018-05-18T03:07:36.246Z,49.69
2018-05-18T03:08:35.100Z,49.73
2018-05-18T03:09:35.080Z,49.75
2018-05-18T03:10:35.869Z,49.73
2018-05-18T03:11:35.527Z,49.75
2018-05-18T03:12:35.549Z,49.74
2018-05-18T03:13:35.518Z,49.7
2018-05-18T03:14:35.570Z,49.69
2018-05-18T03:15:35.606Z,49.65
2018-05-18T03:16:35.535Z,49.6
2018-05-18T03:17:35.195Z,49.72
2018-05-18T03:18:35.334Z,49.68
2018-05-18T03:19:35.244Z,49.67
2018-05-18T03:20:35.089Z,49.73
2018-05-18T03:21:35.156Z,49.72
2018-05-18T03:22:35.313Z,49.67
2018-05-18T03:23:35.151Z,49.66
2018-05-18T03:24:35.129Z,49.69
2018-05-18T03:25:35.358Z,49.59
2018-05-18T03:26:35.129Z,49.62
2018-05-18T03:27:35.067Z,49.68
2018-05-18T03:28:35.158Z,49.59
2018-05-18T03:29:35.269Z,49.67
2018-05-18T03:30:35.297Z,49.64
2018-05-18T03:31:35.197Z,49.64
2018-05-18T03:32:35.280Z,49.59
2018-05-18T03:33:35.295Z,49.64
2018-05-18T03:34:35.151Z,49.67
2018-05-18T03:35:35.254Z,49.69
2018-05-18T03:36:35.169Z,49.63
2018-05-18T03:37:35.376Z,49.66
2018-05-18T03:38:35.366Z,49.69
2018-05-18T03:39:35.191Z,49.64
2018-05-18T03:40:35.065Z,49.66
2018-05-18T03:41:35.229Z,49.68
2018-05-18T03:42:35.316Z,49.63
2018-05-18T03:43:35.337Z,49.7
2018-05-18T03:44:35.290Z,49.66
2018-05-18T03:45:35.241Z,49.58
2018-05-18T03:46:35.201Z,49.69
2018-05-18T03:47:35.111Z,49.65
2018-05-18T03:48:35.264Z,49.69
2018-05-18T03:49:35.103Z,49.67
2018-05-18T03:50:35.346Z,49.66
2018-05-18T03:51:35.285Z,49.69
2018-05-18T03:52:35.255Z,49.62
2018-05-18T03:53:35.317Z,49.61
2018-05-18T03:54:35.271Z,49.64
2018-05-18T03:55:35.220Z,49.58
2018-05-18T03:56:35.398Z,49.65
2018-05-18T03:57:35.265Z,49.66
2018-05-18T03:58:35.100Z,49.62
2018-05-18T03:59:35.260Z,49.61
2018-05-18T04:00:35.263Z,49.63
2018-05-18T04:01:35.079Z,49.6
2018-05-18T04:02:35.332Z,49.61
2018-05-18T04:03:35.336Z,49.68
2018-05-18T04:04:35.240Z,49.61
2018-05-18T04:05:35.202Z,49.67
2018-05-18T04:06:35.160Z,49.66
2018-05-18T04:07:35.091Z,49.6
2018-05-18T04:08:35.306Z,49.58
2018-05-18T04:09:35.378Z,49.57
2018-05-18T04:10:35.308Z,49.59
2018-05-18T04:11:35.249Z,49.61
2018-05-18T04:12:35.217Z,49.64
2018-05-18T04:13:35.165Z,49.63
2018-05-18T04:14:35.304Z,49.62
2018-05-18T04:15:35.311Z,49.52
2018-05-18T04:16:35.069Z,49.66
2018-05-18T04:17:35.083Z,49.65
2018-05-18T04:18:35.268Z,49.61
2018-05-18T04:19:35.137Z,49.61
2018-05-18T04:20:35.305Z,49.58
2018-05-18T04:21:35.273Z,49.58
2018-05-18T04:22:35.152Z,49.61
2018-05-18T04:23:35.336Z,49.58
2018-05-18T04:24:35.489Z,49.6
2018-05-18T04:25:35.119Z,49.63
2018-05-18T04:26:35.123Z,49.58
2018-05-18T04:27:35.194Z,49.62
2018-05-18T04:28:35.077Z,49.63
2018-05-18T04:29:35.180Z,49.59
2018-05-18T04:30:35.374Z,49.6
2018-05-18T04:31:35.283Z,49.6
2018-05-18T04:32:35.156Z,49.65
2018-05-18T04:33:35.242Z,49.65
2018-05-18T04:34:35.098Z,49.58
2018-05-18T04:35:35.349Z,49.67
2018-05-18T04:36:35.317Z,49.59
2018-05-18T04:37:35.352Z,49.62
2018-05-18T04:38:35.398Z,49.59
2018-05-18T04:39:35.334Z,49.63
2018-05-18T04:40:35.240Z,49.6
2018-05-18T04:41:35.328Z,49.63
2018-05-18T04:42:35.320Z,49.55
2018-05-18T04:43:35.136Z,49.62
2018-05-18T04:44:35.282Z,49.63
2018-05-18T04:45:35.156Z,49.66
2018-05-18T04:46:35.249Z,49.62
2018-05-18T04:47:35.413Z,49.61
2018-05-18T04:48:35.256Z,49.58
2018-05-18T04:49:35.157Z,49.6
2018-05-18T04:50:35.300Z,49.57
2018-05-18T04:51:35.127Z,49.56
2018-05-18T04:52:35.112Z,49.59
2018-05-18T04:53:35.199Z,49.58
2018-05-18T04:54:35.134Z,49.59
2018-05-18T04:55:35.221Z,49.61
2018-05-18T04:56:35.304Z,49.62
2018-05-18T04:57:35.239Z,49.56
2018-05-18T04:58:35.227Z,49.59
2018-05-18T04:59:35.286Z,49.66
2018-05-18T05:00:35.250Z,49.61
2018-05-18T05:01:35.045Z,49.53
2018-05-18T05:02:35.202Z,49.59
2018-05-18T05:03:35.292Z,49.57
2018-05-18T05:04:35.228Z,49.57
2018-05-18T05:05:35.417Z,49.57
2018-05-18T05:06:35.244Z,49.6
2018-05-18T05:07:35.287Z,49.58
2018-05-18T05:08:35.373Z,49.63
2018-05-18T05:09:35.235Z,49.58
2018-05-18T05:10:45.315Z,49.6
2018-05-18T05:11:35.396Z,49.56
2018-05-18T05:12:35.358Z,49.6
2018-05-18T05:13:35.146Z,49.58
2018-05-18T05:14:35.274Z,49.67
2018-05-18T05:15:35.208Z,49.58
2018-05-18T05:16:35.103Z,49.54
2018-05-18T05:17:35.273Z,49.61
2018-05-18T05:18:35.346Z,49.62
2018-05-18T05:19:35.375Z,49.61
2018-05-18T05:20:35.195Z,49.58
2018-05-18T05:21:35.412Z,49.61
2018-05-18T05:22:35.097Z,49.63
2018-05-18T05:23:35.331Z,49.66
2018-05-18T05:24:35.217Z,49.61
2018-05-18T05:25:35.165Z,49.61
2018-05-18T05:26:35.007Z,49.63
2018-05-18T05:27:35.215Z,49.58
2018-05-18T05:28:35.087Z,49.56
2018-05-18T05:29:35.348Z,49.62
2018-05-18T05:30:35.439Z,49.61
2018-05-18T05:31:35.217Z,50.1
2018-05-18T05:32:35.377Z,49.94
2018-05-18T05:33:35.272Z,49.96
2018-05-18T05:34:35.337Z,49.84
2018-05-18T05:35:35.080Z,49.84
2018-05-18T05:36:35.215Z,49.84
2018-05-18T05:37:35.207Z,49.8
2018-05-18T05:38:35.158Z,49.76
2018-05-18T05:39:35.142Z,49.8
2018-05-18T05:40:35.125Z,49.91
2018-05-18T05:41:35.275Z,49.9
2018-05-18T05:42:35.185Z,49.9
2018-05-18T05:43:35.333Z,49.9
2018-05-18T05:44:35.099Z,49.94
2018-05-18T05:45:35.063Z,49.89
2018-05-18T05:46:35.253Z,49.87
2018-05-18T05:47:35.352Z,49.83
2018-05-18T05:48:35.235Z,49.85
2018-05-18T05:49:35.269Z,49.86
2018-05-18T05:50:35.208Z,49.98
2018-05-18T05:51:35.211Z,49.94
2018-05-18T05:52:35.237Z,50.03
2018-05-18T05:53:35.024Z,49.99
2018-05-18T05:54:35.302Z,49.85
2018-05-18T05:55:35.257Z,50.01
2018-05-18T05:56:35.166Z,49.96
2018-05-18T05:57:35.131Z,50.05
2018-05-18T05:58:35.421Z,50.02
2018-05-18T05:59:35.276Z,49.96
2018-05-18T06:00:35.252Z,49.93
2018-05-18T06:01:35.269Z,50
2018-05-18T06:02:35.101Z,50.09
2018-05-18T06:03:35.183Z,50.1
2018-05-18T06:04:35.280Z,50.17
2018-05-18T06:05:35.234Z,50.1
2018-05-18T06:06:35.494Z,50.05
2018-05-18T06:07:35.171Z,50.07
2018-05-18T06:08:35.047Z,50.04
2018-05-18T06:09:35.348Z,49.97
2018-05-18T06:10:35.478Z,50.01
2018-05-18T06:11:35.226Z,50.04
2018-05-18T06:12:35.300Z,49.98
2018-05-18T06:13:35.142Z,50.22
2018-05-18T06:14:35.286Z,50.32
2018-05-18T06:15:35.102Z,50.33
2018-05-18T06:16:35.138Z,50.27
2018-05-18T06:17:35.480Z,50.25
2018-05-18T06:18:35.562Z,50.14
2018-05-18T06:19:35.457Z,50.21
2018-05-18T06:20:35.217Z,50.11
2018-05-18T06:21:35.204Z,50.38
2018-05-18T06:22:35.136Z,50.75
2018-05-18T06:23:35.067Z,50.26
2018-05-18T06:24:35.157Z,50.2
2018-05-18T06:25:35.320Z,50.18
2018-05-18T06:26:35.229Z,50.2
2018-05-18T06:27:45.129Z,50.18
2018-05-18T06:28:35.084Z,50.08
2018-05-18T06:29:35.182Z,50.03
2018-05-18T06:30:35.272Z,50.02
2018-05-18T06:31:35.323Z,49.99
2018-05-18T06:32:35.125Z,50.03
2018-05-18T06:33:35.158Z,50.08
2018-05-18T06:34:35.230Z,50.04
2018-05-18T06:35:35.176Z,50.09
2018-05-18T06:36:35.204Z,50.09
2018-05-18T06:37:35.090Z,50
2018-05-18T06:38:35.253Z,49.96
2018-05-18T06:39:35.110Z,49.98
2018-05-18T06:40:35.067Z,50.06
2018-05-18T06:41:35.178Z,49.97
2018-05-18T06:42:35.313Z,50
2018-05-18T06:43:35.115Z,49.98
2018-05-18T06:44:35.134Z,50.02
2018-05-18T06:45:35.193Z,50
2018-05-18T06:46:35.042Z,50.04
2018-05-18T06:47:35.286Z,50.08
2018-05-18T06:48:35.302Z,50.09
2018-05-18T06:49:35.318Z,50.06
2018-05-18T06:50:35.114Z,50.14
2018-05-18T06:51:35.254Z,50.05
2018-05-18T06:52:35.207Z,50.02
2018-05-18T06:53:35.130Z,50.05
2018-05-18T06:54:35.225Z,50.15
2018-05-18T06:55:35.276Z,50.09
2018-05-18T06:56:35.111Z,50.04
2018-05-18T06:57:35.343Z,50.04
2018-05-18T06:58:35.264Z,50
2018-05-18T06:59:35.195Z,50.1
2018-05-18T07:00:35.141Z,50.11
2018-05-18T07:01:35.044Z,50.14
2018-05-18T07:02:35.105Z,50.24
2018-05-18T07:03:35.135Z,50.16
2018-05-18T07:04:35.410Z,50.11
2018-05-18T07:05:35.075Z,50.08
2018-05-18T07:06:35.282Z,50.25
2018-05-18T07:07:35.176Z,50.24
2018-05-18T07:08:35.268Z,50.15
2018-05-18T07:09:35.256Z,50.17
2018-05-18T07:10:35.155Z,50.19
2018-05-18T07:11:35.238Z,50.18
2018-05-18T07:12:35.218Z,50.13
2018-05-18T07:13:35.304Z,50.12
2018-05-18T07:14:35.243Z,50.06
2018-05-18T07:15:35.273Z,50.07
2018-05-18T07:16:35.415Z,50
2018-05-18T07:17:35.289Z,50.05
2018-05-18T07:18:35.056Z,49.94
2018-05-18T07:19:35.413Z,49.97
2018-05-18T07:20:35.068Z,49.99
2018-05-18T07:21:35.137Z,50
2018-05-18T07:22:35.281Z,49.88
2018-05-18T07:23:35.217Z,49.84
2018-05-18T07:24:35.231Z,49.79
2018-05-18T07:25:35.159Z,49.83
2018-05-18T07:26:35.460Z,49.96
2018-05-18T07:27:35.164Z,49.96
2018-05-18T07:28:35.024Z,50.02
2018-05-18T07:29:35.242Z,50.01
2018-05-18T07:30:35.006Z,50.03
2018-05-18T07:31:35.168Z,50.08
2018-05-18T07:32:35.365Z,50.03
2018-05-18T07:33:35.318Z,49.99
2018-05-18T07:34:35.012Z,50.06
2018-05-18T07:35:35.253Z,50
2018-05-18T07:36:35.341Z,49.98
2018-05-18T07:37:35.115Z,49.91
2018-05-18T07:38:35.339Z,50.01
2018-05-18T07:39:35.078Z,49.96
2018-05-18T07:40:35.334Z,49.96
2018-05-18T07:41:35.270Z,49.93
2018-05-18T07:42:35.412Z,49.93
2018-05-18T07:43:35.247Z,49.9
2018-05-18T07:44:35.158Z,49.92
2018-05-18T07:45:35.189Z,49.9
2018-05-18T07:46:35.325Z,49.87
2018-05-18T07:47:35.288Z,49.94
2018-05-18T07:48:34.989Z,49.87
2018-05-18T07:49:35.221Z,49.81
2018-05-18T07:50:35.275Z,49.86
2018-05-18T07:51:35.176Z,49.82
2018-05-18T07:52:35.096Z,49.75
2018-05-18T07:53:35.384Z,49.79
2018-05-18T07:54:35.217Z,49.81
2018-05-18T07:55:35.428Z,49.88
2018-05-18T07:56:35.114Z,49.88
2018-05-18T07:57:35.160Z,50.04
2018-05-18T07:58:35.009Z,50.06
2018-05-18T07:59:35.307Z,50
2018-05-18T08:00:35.204Z,50.03
2018-05-18T08:01:35.127Z,50
2018-05-18T08:02:35.165Z,50.02
2018-05-18T08:03:35.276Z,49.94
2018-05-18T08:04:35.256Z,49.96
2018-05-18T08:05:35.021Z,49.92
2018-05-18T08:06:34.974Z,49.95
2018-05-18T08:07:35.044Z,49.87
2018-05-18T08:08:35.245Z,49.88
2018-05-18T08:09:35.884Z,49.98
2018-05-18T08:10:35.948Z,49.86
2018-05-18T08:11:35.787Z,49.81
2018-05-18T08:12:35.764Z,49.79
2018-05-18T08:13:36.018Z,49.81
2018-05-18T08:14:35.921Z,49.82
2018-05-18T08:15:35.711Z,49.79
2018-05-18T08:16:35.852Z,49.74
2018-05-18T08:17:35.910Z,49.73
2018-05-18T08:18:35.724Z,49.67
2018-05-18T08:19:35.799Z,49.58
2018-05-18T08:20:35.742Z,49.62
2018-05-18T08:21:35.840Z,49.54
2018-05-18T08:22:35.752Z,49.59
2018-05-18T08:23:35.675Z,49.64
2018-05-18T08:24:35.693Z,49.5
2018-05-18T08:25:35.816Z,49.5
2018-05-18T08:26:35.923Z,49.55
2018-05-18T08:27:35.782Z,49.33
2018-05-18T08:28:35.704Z,49.51
2018-05-18T08:29:35.970Z,49.56
2018-05-18T08:30:35.850Z,49.49
2018-05-18T08:31:36.001Z,49.51
2018-05-18T08:32:35.796Z,49.45
2018-05-18T08:33:35.714Z,49.44
2018-05-18T08:34:35.845Z,49.45
2018-05-18T08:35:35.823Z,49.4
2018-05-18T08:36:35.816Z,49.4
2018-05-18T08:37:35.803Z,49.34
2018-05-18T08:38:35.760Z,49.47
2018-05-18T08:39:35.018Z,49.53
2018-05-18T08:40:35.193Z,49.51
2018-05-18T08:41:35.139Z,49.78
2018-05-18T08:42:35.091Z,49.65
2018-05-18T08:43:35.135Z,49.67
2018-05-18T08:44:35.199Z,49.67
2018-05-18T08:45:35.206Z,49.62
2018-05-18T08:46:35.037Z,49.64
2018-05-18T08:47:35.411Z,49.6
2018-05-18T08:48:35.105Z,49.6
2018-05-18T08:49:35.436Z,49.57
2018-05-18T08:50:35.208Z,49.67
2018-05-18T08:51:45.177Z,49.6
2018-05-18T08:52:35.180Z,49.68
2018-05-18T08:53:35.089Z,49.66
2018-05-18T08:54:35.265Z,49.63
2018-05-18T08:55:35.202Z,49.64
2018-05-18T08:56:35.157Z,49.59
2018-05-18T08:57:35.164Z,49.53
2018-05-18T08:58:35.055Z,49.51
2018-05-18T08:59:35.335Z,49.59
2018-05-18T09:00:35.335Z,49.51
2018-05-18T09:01:35.111Z,49.57
2018-05-18T09:02:35.062Z,49.58
2018-05-18T09:03:35.130Z,49.6
2018-05-18T09:04:35.277Z,49.51
2018-05-18T09:05:35.267Z,49.6
2018-05-18T09:06:35.305Z,49.51
2018-05-18T09:07:35.010Z,49.56
2018-05-18T09:08:35.130Z,49.57
2018-05-18T09:09:35.131Z,49.53
2018-05-18T09:10:35.151Z,49.55
2018-05-18T09:11:35.231Z,49.51
2018-05-18T09:12:35.080Z,49.52
2018-05-18T09:13:35.246Z,49.52
2018-05-18T09:14:35.194Z,49.56
2018-05-18T09:15:35.105Z,49.56
2018-05-18T09:16:35.044Z,49.48
2018-05-18T09:17:35.157Z,49.51
2018-05-18T09:18:35.077Z,49.49
2018-05-18T09:19:35.022Z,49.51
2018-05-18T09:20:35.112Z,49.55
2018-05-18T09:21:35.270Z,49.58
2018-05-18T09:22:35.060Z,49.53
2018-05-18T09:23:35.098Z,49.61
2018-05-18T09:24:35.214Z,49.48
2018-05-18T09:25:35.026Z,49.47
2018-05-18T09:26:35.115Z,49.42
2018-05-18T09:27:35.251Z,49.48
2018-05-18T09:28:35.132Z,49.42
2018-05-18T09:29:35.277Z,49.45
2018-05-18T09:30:35.213Z,49.42
2018-05-18T09:31:35.196Z,49.43
2018-05-18T09:32:35.140Z,49.52
2018-05-18T09:33:35.257Z,49.45
2018-05-18T09:34:34.943Z,49.46
2018-05-18T09:35:35.129Z,49.55
2018-05-18T09:36:35.011Z,49.5
2018-05-18T09:37:35.192Z,49.48
2018-05-18T09:38:34.961Z,49.48
2018-05-18T09:39:35.145Z,49.5
2018-05-18T09:40:35.046Z,49.54
2018-05-18T09:41:35.033Z,49.5
2018-05-18T09:42:35.178Z,49.48
2018-05-18T09:43:35.108Z,49.49
2018-05-18T09:44:35.177Z,49.46
2018-05-18T09:45:35.097Z,49.51
2018-05-18T09:46:35.067Z,49.45
2018-05-18T09:47:35.055Z,49.53
2018-05-18T09:48:35.271Z,49.44
2018-05-18T09:49:35.242Z,49.46
2018-05-18T09:50:35.225Z,49.51
2018-05-18T09:51:35.250Z,49.46
2018-05-18T09:52:34.993Z,49.46
2018-05-18T09:53:35.003Z,49.46
2018-05-18T09:54:35.361Z,49.47
2018-05-18T09:55:35.712Z,49.45
2018-05-18T09:56:35.104Z,49.47
2018-05-18T09:57:35.204Z,49.48
2018-05-18T09:58:35.156Z,49.48
2018-05-18T09:59:35.151Z,49.48
2018-05-18T10:00:35.324Z,49.47
2018-05-18T10:01:34.927Z,49.5
2018-05-18T10:02:35.230Z,49.46
2018-05-18T10:03:35.010Z,49.45
2018-05-18T10:04:35.160Z,49.53
2018-05-18T10:05:35.035Z,49.54
2018-05-18T10:06:35.024Z,49.55
2018-05-18T10:07:35.048Z,49.47
2018-05-18T10:08:35.162Z,49.57
2018-05-18T10:09:35.180Z,49.53
2018-05-18T10:10:35.072Z,49.42
2018-05-18T10:11:35.028Z,49.51
2018-05-18T10:12:34.985Z,49.5
2018-05-18T10:13:35.124Z,49.55
2018-05-18T10:14:35.167Z,49.49
2018-05-18T10:15:35.238Z,49.49
2018-05-18T10:16:35.034Z,49.53
2018-05-18T10:17:35.242Z,49.49
2018-05-18T10:18:35.213Z,49.51
2018-05-18T10:19:35.181Z,49.49
2018-05-18T10:20:34.985Z,49.52
2018-05-18T10:21:34.972Z,49.52
2018-05-18T10:22:34.999Z,49.52
2018-05-18T10:23:35.072Z,49.51
2018-05-18T10:24:35.182Z,49.49
2018-05-18T10:25:34.977Z,49.51
2018-05-18T10:26:35.174Z,49.5
2018-05-18T10:27:35.039Z,49.46
2018-05-18T10:28:35.220Z,49.42
2018-05-18T10:29:35.262Z,49.44
2018-05-18T10:30:34.949Z,49.48
2018-05-18T10:31:35.176Z,49.5
2018-05-18T10:32:35.188Z,49.38
2018-05-18T10:33:35.086Z,49.54
2018-05-18T10:34:35.201Z,49.44
2018-05-18T10:35:35.079Z,49.46
2018-05-18T10:36:35.012Z,49.46
2018-05-18T10:37:35.123Z,49.43
2018-05-18T10:38:35.199Z,49.45
2018-05-18T10:39:45.396Z,49.49
2018-05-18T10:40:35.206Z,49.52
2018-05-18T10:41:35.002Z,49.52
2018-05-18T10:42:35.011Z,49.44
2018-05-18T10:43:35.135Z,49.46
2018-05-18T10:44:35.173Z,49.52
2018-05-18T10:45:35.143Z,49.5
2018-05-18T10:46:35.092Z,49.46
2018-05-18T10:47:35.061Z,49.5
2018-05-18T10:48:35.227Z,49.49
2018-05-18T10:49:35.135Z,49.48
2018-05-18T10:50:35.171Z,49.44
2018-05-18T10:51:35.056Z,49.5
2018-05-18T10:52:35.083Z,49.45
2018-05-18T10:53:35.193Z,49.53
2018-05-18T10:54:35.153Z,49.68
2018-05-18T10:55:45.061Z,49.6
2018-05-18T10:56:35.259Z,49.69
2018-05-18T10:57:35.110Z,49.58
2018-05-18T10:58:35.127Z,49.54
2018-05-18T10:59:35.188Z,49.61
2018-05-18T11:00:35.200Z,49.6
2018-05-18T11:01:35.154Z,49.57
2018-05-18T11:02:35.080Z,49.72
2018-05-18T11:03:35.048Z,49.76
2018-05-18T11:04:35.076Z,49.92
2018-05-18T11:05:34.966Z,49.75
2018-05-18T11:06:35.156Z,49.81
2018-05-18T11:07:35.187Z,49.72
2018-05-18T11:08:35.069Z,49.68
2018-05-18T11:09:35.199Z,49.69
2018-05-18T11:10:35.120Z,49.66
2018-05-18T11:11:34.993Z,49.67
2018-05-18T11:12:35.148Z,49.72
2018-05-18T11:13:35.193Z,49.68
2018-05-18T11:14:35.237Z,49.79
2018-05-18T11:15:35.234Z,49.67
2018-05-18T11:16:35.068Z,49.69
2018-05-18T11:17:35.045Z,49.83
2018-05-18T11:18:35.175Z,49.74
2018-05-18T11:19:35.094Z,49.82
2018-05-18T11:20:35.090Z,49.77
2018-05-18T11:21:35.074Z,49.76
2018-05-18T11:22:35.183Z,49.76
2018-05-18T11:23:35.117Z,49.69
2018-05-18T11:24:35.031Z,49.75
2018-05-18T11:25:35.247Z,49.71
2018-05-18T11:26:34.984Z,49.78
2018-05-18T11:27:35.223Z,49.68
2018-05-18T11:28:35.059Z,49.7
2018-05-18T11:29:34.959Z,49.74
2018-05-18T11:30:35.067Z,49.67
2018-05-18T11:31:35.030Z,49.63
2018-05-18T11:32:35.071Z,49.65
2018-05-18T11:33:35.066Z,49.62
2018-05-18T11:34:35.145Z,49.64
2018-05-18T11:35:34.997Z,49.66
2018-05-18T11:36:35.257Z,49.62
2018-05-18T11:37:35.181Z,49.57
2018-05-18T11:38:34.940Z,49.62
2018-05-18T11:39:35.138Z,49.57
2018-05-18T11:40:35.120Z,49.58
2018-05-18T11:41:35.160Z,49.62
2018-05-18T11:42:35.124Z,49.61
2018-05-18T11:43:35.036Z,49.54
2018-05-18T11:44:34.961Z,49.6
2018-05-18T11:45:35.168Z,49.57
2018-05-18T11:46:35.221Z,49.57
2018-05-18T11:47:34.841Z,49.54
2018-05-18T11:48:35.262Z,49.52
2018-05-18T11:49:35.031Z,49.6
2018-05-18T11:50:35.171Z,49.63
2018-05-18T11:51:34.961Z,49.65
2018-05-18T11:52:35.058Z,49.64
2018-05-18T11:53:35.217Z,49.72
2018-05-18T11:54:35.320Z,49.68
2018-05-18T11:55:35.236Z,49.61
2018-05-18T11:56:34.965Z,49.66
2018-05-18T11:57:35.086Z,49.66
2018-05-18T11:58:35.232Z,49.71
2018-05-18T11:59:35.209Z,49.62
2018-05-18T12:00:35.239Z,49.59
2018-05-18T12:01:35.017Z,49.59
2018-05-18T12:02:35.298Z,49.69
2018-05-18T12:03:35.056Z,49.64
2018-05-18T12:04:35.013Z,49.71
2018-05-18T12:05:35.018Z,49.65
2018-05-18T12:06:35.107Z,49.64
2018-05-18T12:07:35.147Z,49.56
2018-05-18T12:08:35.261Z,49.68
2018-05-18T12:09:35.077Z,49.71
2018-05-18T12:10:35.078Z,49.67
2018-05-18T12:11:35.192Z,49.68
2018-05-18T12:12:35.172Z,49.63
2018-05-18T12:13:35.016Z,49.66
2018-05-18T12:14:34.987Z,49.66
2018-05-18T12:15:35.218Z,49.66
2018-05-18T12:16:35.030Z,49.6
2018-05-18T12:17:35.046Z,49.66
2018-05-18T12:18:35.034Z,49.62
2018-05-18T12:19:35.195Z,49.58
2018-05-18T12:20:35.210Z,49.67
2018-05-18T12:21:35.393Z,49.58
2018-05-18T12:22:35.203Z,49.62
2018-05-18T12:23:35.224Z,49.65
2018-05-18T12:24:35.213Z,49.64
2018-05-18T12:25:35.271Z,49.61
2018-05-18T12:26:35.230Z,49.69
2018-05-18T12:27:35.233Z,49.58
2018-05-18T12:28:35.236Z,49.6
2018-05-18T12:29:35.058Z,49.62
2018-05-18T12:30:35.264Z,49.63
2018-05-18T12:31:35.465Z,49.61
2018-05-18T12:32:35.057Z,49.67
2018-05-18T12:33:35.291Z,49.61
2018-05-18T12:34:35.285Z,49.88
2018-05-18T12:35:35.271Z,49.92
2018-05-18T12:36:35.017Z,49.73
2018-05-18T12:37:35.339Z,49.7
2018-05-18T12:38:35.314Z,49.56
2018-05-18T12:39:35.283Z,49.67
2018-05-18T12:40:35.323Z,49.56
2018-05-18T12:41:35.355Z,49.9
2018-05-18T12:42:35.340Z,49.88
2018-05-18T12:43:35.144Z,49.87
2018-05-18T12:44:35.476Z,49.82
2018-05-18T12:45:35.360Z,49.81
2018-05-18T12:46:35.346Z,49.78
2018-05-18T12:47:35.372Z,49.89
2018-05-18T12:48:35.387Z,49.78
2018-05-18T12:49:35.391Z,49.77
2018-05-18T12:50:35.007Z,49.76
2018-05-18T12:51:35.410Z,49.71
2018-05-18T12:52:35.218Z,49.82
2018-05-18T12:53:35.215Z,49.72
2018-05-18T12:54:34.944Z,49.82
2018-05-18T12:55:35.438Z,49.76
2018-05-18T12:56:35.445Z,49.85